createdAt,value
2017-11-06T00:01:23.062Z,100720
2017-11-06T00:03:51.974Z,100718
2017-11-06T00:06:20.152Z,100724
2017-11-06T00:08:48.302Z,100715
2017-11-06T00:11:17.236Z,100718
2017-11-06T00:13:45.378Z,100716
2017-11-06T00:16:13.540Z,100735
2017-11-06T00:18:43.046Z,100739
2017-11-06T00:21:11.961Z,100736
2017-11-06T00:23:40.114Z,100739
2017-11-06T00:26:09.040Z,100745
2017-11-06T00:28:37.204Z,100746
2017-11-06T00:31:05.364Z,100743
2017-11-06T00:33:33.508Z,100745
2017-11-06T00:36:01.732Z,100756
2017-11-06T00:38:29.890Z,100763
2017-11-06T00:40:58.228Z,100764
2017-11-06T00:43:26.383Z,100761
2017-11-06T00:45:54.626Z,100761
2017-11-06T00:48:22.798Z,100767
2017-11-06T00:50:50.943Z,100767
2017-11-06T00:53:19.104Z,100778
2017-11-06T00:55:48.020Z,100781
2017-11-06T00:58:16.179Z,100781
2017-11-06T01:00:44.311Z,100787
2017-11-06T01:03:12.841Z,100782
2017-11-06T01:05:40.986Z,100783
2017-11-06T01:08:10.594Z,100784
2017-11-06T01:10:39.537Z,100784
2017-11-06T01:13:07.718Z,100775
2017-11-06T01:15:35.854Z,100768
2017-11-06T01:18:04.005Z,100780
2017-11-06T01:20:33.145Z,100778
2017-11-06T01:23:01.328Z,100781
2017-11-06T01:25:29.492Z,100773
2017-11-06T01:27:57.647Z,100784
2017-11-06T01:30:25.818Z,100795
2017-11-06T01:32:53.965Z,100791
2017-11-06T01:35:22.897Z,100799
2017-11-06T01:37:51.071Z,100792
2017-11-06T01:40:24.663Z,100800
2017-11-06T01:42:52.839Z,100801
2017-11-06T01:45:20.995Z,100807
2017-11-06T01:47:49.186Z,100806
2017-11-06T01:50:17.344Z,100811
2017-11-06T01:52:45.496Z,100807
2017-11-06T01:55:14.447Z,100806
2017-11-06T01:57:42.612Z,100822
2017-11-06T02:00:10.752Z,100828
2017-11-06T02:02:38.914Z,100824
2017-11-06T02:05:07.065Z,100827
2017-11-06T02:07:35.993Z,100834
2017-11-06T02:10:04.144Z,100819
2017-11-06T02:12:33.077Z,100832
2017-11-06T02:15:01.212Z,100832
2017-11-06T02:17:29.380Z,100843
2017-11-06T02:19:57.573Z,100846
2017-11-06T02:22:25.735Z,100844
2017-11-06T02:24:53.905Z,100847
2017-11-06T02:27:22.077Z,100846
2017-11-06T02:29:50.231Z,100837
2017-11-06T02:32:18.397Z,100844
2017-11-06T02:34:47.311Z,100854
2017-11-06T02:37:15.481Z,100869
2017-11-06T02:39:43.645Z,100873
2017-11-06T02:42:11.808Z,100881
2017-11-06T02:44:40.743Z,100885
2017-11-06T02:47:08.887Z,100885
2017-11-06T02:49:37.058Z,100895
2017-11-06T02:52:05.201Z,100896
2017-11-06T02:54:34.143Z,100892
2017-11-06T02:57:02.285Z,100903
2017-11-06T02:59:31.206Z,100903
2017-11-06T03:01:59.359Z,100908
2017-11-06T03:04:27.529Z,100905
2017-11-06T03:06:55.742Z,100908
2017-11-06T03:09:23.903Z,100906
2017-11-06T03:11:52.049Z,100895
2017-11-06T03:14:20.990Z,100889
2017-11-06T03:16:49.153Z,100901
2017-11-06T03:19:17.335Z,100908
2017-11-06T03:21:45.484Z,100931
2017-11-06T03:24:13.635Z,100946
2017-11-06T03:26:42.666Z,100953
2017-11-06T03:29:10.817Z,100946
2017-11-06T03:31:38.998Z,100952
2017-11-06T03:34:07.152Z,100964
2017-11-06T03:36:35.325Z,100967
2017-11-06T03:39:03.487Z,100972
2017-11-06T03:41:32.350Z,100961
2017-11-06T03:44:00.494Z,100951
2017-11-06T03:46:28.656Z,100958
2017-11-06T03:48:56.802Z,100953
2017-11-06T03:51:24.954Z,100959
2017-11-06T03:53:53.875Z,100967
2017-11-06T03:56:22.035Z,100971
2017-11-06T03:58:50.243Z,100978
2017-11-06T04:01:18.403Z,100985
2017-11-06T04:03:46.902Z,100982
2017-11-06T04:06:15.054Z,100988
2017-11-06T04:08:43.231Z,101000
2017-11-06T04:11:11.507Z,101002
2017-11-06T04:13:39.648Z,101011
2017-11-06T04:16:07.856Z,101013
2017-11-06T04:18:36.027Z,101016
2017-11-06T04:21:04.175Z,101023
2017-11-06T04:23:32.335Z,101036
2017-11-06T04:26:00.473Z,101035
2017-11-06T04:28:28.627Z,101041
2017-11-06T04:30:56.991Z,101041
2017-11-06T04:33:25.155Z,101032
2017-11-06T04:35:53.303Z,101035
2017-11-06T04:38:21.519Z,101042
2017-11-06T04:40:49.647Z,101031
2017-11-06T04:43:18.681Z,101043
2017-11-06T04:45:46.830Z,101044
2017-11-06T04:48:15.006Z,101042
2017-11-06T04:50:43.155Z,101047
2017-11-06T04:53:12.124Z,101044
2017-11-06T04:55:41.083Z,101052
2017-11-06T04:58:09.271Z,101058
2017-11-06T05:00:37.411Z,101058
2017-11-06T05:03:05.563Z,101062
2017-11-06T05:05:33.749Z,101065
2017-11-06T05:08:01.947Z,101071
2017-11-06T05:10:30.131Z,101069
2017-11-06T05:12:58.285Z,101068
2017-11-06T05:15:26.450Z,101065
2017-11-06T05:17:54.577Z,101075
2017-11-06T05:20:22.727Z,101084
2017-11-06T05:22:50.869Z,101083
2017-11-06T05:25:19.042Z,101093
2017-11-06T05:27:47.214Z,101089
2017-11-06T05:30:15.397Z,101099
2017-11-06T05:32:43.539Z,101089
2017-11-06T05:35:11.703Z,101096
2017-11-06T05:37:40.602Z,101105
2017-11-06T05:40:08.814Z,101111
2017-11-06T05:42:36.950Z,101121
2017-11-06T05:45:05.117Z,101130
2017-11-06T05:47:33.269Z,101138
2017-11-06T05:50:02.178Z,101135
2017-11-06T05:52:30.319Z,101146
2017-11-06T05:54:58.486Z,101149
2017-11-06T05:57:26.643Z,101147
2017-11-06T05:59:54.792Z,101158
2017-11-06T06:02:22.950Z,101159
2017-11-06T06:04:51.095Z,101160
2017-11-06T06:07:20.027Z,101159
2017-11-06T06:09:48.216Z,101167
2017-11-06T06:12:16.377Z,101164
2017-11-06T06:14:44.538Z,101168
2017-11-06T06:17:12.692Z,101174
2017-11-06T06:19:40.897Z,101174
2017-11-06T06:22:09.057Z,101190
2017-11-06T06:24:37.200Z,101192
2017-11-06T06:27:06.131Z,101201
2017-11-06T06:29:34.280Z,101199
2017-11-06T06:32:02.444Z,101211
2017-11-06T06:34:30.608Z,101216
2017-11-06T06:36:59.555Z,101225
2017-11-06T06:39:27.703Z,101219
2017-11-06T06:41:56.388Z,101231
2017-11-06T06:44:25.523Z,101225
2017-11-06T06:46:53.685Z,101234
2017-11-06T06:49:21.836Z,101243
2017-11-06T06:51:50.140Z,101247
2017-11-06T06:54:18.287Z,101250
2017-11-06T06:56:46.435Z,101263
2017-11-06T06:59:14.599Z,101263
2017-11-06T07:01:43.515Z,101261
2017-11-06T07:04:11.698Z,101259
2017-11-06T07:06:39.840Z,101263
2017-11-06T07:09:08.048Z,101262
2017-11-06T07:11:36.703Z,101275
2017-11-06T07:14:04.872Z,101283
2017-11-06T07:23:32.982Z,101313
2017-11-06T07:26:01.152Z,101318
2017-11-06T07:28:30.063Z,101308
2017-11-06T07:30:59.170Z,101310
2017-11-06T07:33:27.325Z,101324
2017-11-06T07:35:55.521Z,101313
2017-11-06T07:38:23.751Z,101329
2017-11-06T07:40:52.789Z,101335
2017-11-06T07:43:20.948Z,101334
2017-11-06T07:45:49.142Z,101341
2017-11-06T07:48:17.287Z,101336
2017-11-06T07:50:45.476Z,101340
2017-11-06T07:53:13.627Z,101348
2017-11-06T07:55:42.298Z,101344
2017-11-06T07:58:10.455Z,101356
2017-11-06T08:00:39.367Z,101350
2017-11-06T08:03:07.535Z,101360
2017-11-06T08:05:35.699Z,101372
2017-11-06T08:08:04.628Z,101371
2017-11-06T08:10:32.768Z,101377
2017-11-06T08:13:01.231Z,101379
2017-11-06T08:15:30.143Z,101384
2017-11-06T08:17:58.314Z,101382
2017-11-06T08:20:26.527Z,101391
2017-11-06T08:22:54.696Z,101392
2017-11-06T08:25:22.843Z,101405
2017-11-06T08:27:51.011Z,101402
2017-11-06T08:30:19.151Z,101393
2017-11-06T08:32:47.674Z,101417
2017-11-06T08:35:15.825Z,101412
2017-11-06T08:37:44.753Z,101416
2017-11-06T08:40:12.908Z,101409
2017-11-06T08:42:41.071Z,101418
2017-11-06T08:45:09.213Z,101423
2017-11-06T08:47:37.358Z,101435
2017-11-06T08:50:05.638Z,101435
2017-11-06T08:52:33.827Z,101448
2017-11-06T08:55:02.001Z,101455
2017-11-06T08:57:30.155Z,101458
2017-11-06T08:59:58.406Z,101453
2017-11-06T09:02:26.855Z,101466
2017-11-06T09:04:55.880Z,101460
2017-11-06T09:07:24.038Z,101469
2017-11-06T09:09:52.320Z,101468
2017-11-06T09:12:20.454Z,101467
2017-11-06T09:14:48.643Z,101477
2017-11-06T09:17:17.568Z,101491
2017-11-06T09:19:45.745Z,101494
2017-11-06T09:22:14.581Z,101497
2017-11-06T09:24:44.071Z,101503
2017-11-06T09:27:12.227Z,101502
2017-11-06T09:29:40.418Z,101509
2017-11-06T09:32:08.596Z,101501
2017-11-06T09:34:36.744Z,101515
2017-11-06T09:37:04.920Z,101510
2017-11-06T09:39:33.074Z,101504
2017-11-06T09:42:01.239Z,101516
2017-11-06T09:44:29.418Z,101513
2017-11-06T09:46:57.596Z,101516
2017-11-06T09:49:26.576Z,101512
2017-11-06T09:51:54.739Z,101516
2017-11-06T09:54:22.904Z,101510
2017-11-06T09:56:51.886Z,101507
2017-11-06T10:06:19.893Z,101527
2017-11-06T10:08:49.480Z,101528
2017-11-06T10:11:17.814Z,101540
2017-11-06T10:13:45.982Z,101536
2017-11-06T10:16:14.177Z,101536
2017-11-06T10:18:42.348Z,101540
2017-11-06T10:21:10.493Z,101537
2017-11-06T10:23:38.672Z,101540
2017-11-06T10:26:06.827Z,101546
2017-11-06T10:28:35.594Z,101540
2017-11-06T10:31:04.530Z,101542
2017-11-06T10:33:32.701Z,101537
2017-11-06T10:36:00.877Z,101524
2017-11-06T10:38:29.079Z,101523
2017-11-06T10:40:57.254Z,101534
2017-11-06T10:43:25.454Z,101524
2017-11-06T10:45:54.377Z,101529
2017-11-06T10:48:22.587Z,101530
2017-11-06T10:50:50.732Z,101534
2017-11-06T10:53:19.729Z,101521
2017-11-06T10:55:58.270Z,101527
2017-11-06T10:58:26.415Z,101526
2017-11-06T11:00:54.587Z,101527
2017-11-06T11:03:22.744Z,101531
2017-11-06T11:05:50.980Z,101533
2017-11-06T11:08:19.899Z,101540
2017-11-06T11:10:48.189Z,101548
2017-11-06T11:13:16.344Z,101541
2017-11-06T11:15:44.555Z,101535
2017-11-06T11:18:12.711Z,101551
2017-11-06T11:20:41.054Z,101551
2017-11-06T11:23:09.963Z,101550
2017-11-06T11:25:38.173Z,101551
2017-11-06T11:28:06.512Z,101542
2017-11-06T11:30:34.690Z,101554
2017-11-06T11:33:02.895Z,101562
2017-11-06T11:35:31.182Z,101559
2017-11-06T11:37:59.344Z,101571
2017-11-06T11:40:27.495Z,101573
2017-11-06T11:42:55.683Z,101573
2017-11-06T11:45:23.835Z,101567
2017-11-06T11:47:51.998Z,101568
2017-11-06T11:50:20.421Z,101569
2017-11-06T11:52:49.396Z,101565
2017-11-06T11:55:17.560Z,101573
2017-11-06T11:57:45.848Z,101567
2017-11-06T12:00:14.012Z,101566
2017-11-06T12:02:42.170Z,101567
2017-11-06T12:05:10.327Z,101567
2017-11-06T12:07:38.531Z,101576
2017-11-06T12:10:06.696Z,101564
2017-11-06T12:12:34.842Z,101576
2017-11-06T12:15:03.872Z,101578
2017-11-06T12:17:33.214Z,101583
2017-11-06T12:20:02.179Z,101598
2017-11-06T12:22:30.940Z,101598
2017-11-06T12:24:59.233Z,101608
2017-11-06T12:27:27.460Z,101615
2017-11-06T12:29:56.698Z,101616
2017-11-06T12:32:24.860Z,101624
2017-11-06T12:34:53.021Z,101633
2017-11-06T12:37:21.162Z,101631
2017-11-06T12:39:50.120Z,101628
2017-11-06T12:42:18.282Z,101622
2017-11-06T12:44:46.443Z,101626
2017-11-06T12:47:14.593Z,101628
2017-11-06T12:49:42.739Z,101636
2017-11-06T12:52:10.976Z,101623
2017-11-06T12:54:40.513Z,101627
2017-11-06T12:57:08.763Z,101619
2017-11-06T12:59:37.039Z,101625
2017-11-06T13:02:05.198Z,101631
2017-11-06T13:04:33.388Z,101635
2017-11-06T13:07:01.579Z,101634
2017-11-06T13:09:29.735Z,101640
2017-11-06T13:11:57.907Z,101646
2017-11-06T13:14:26.861Z,101644
2017-11-06T13:16:55.047Z,101653
2017-11-06T13:19:23.772Z,101647
2017-11-06T13:21:51.961Z,101653
2017-11-06T13:24:20.867Z,101658
2017-11-06T13:26:49.035Z,101654
2017-11-06T13:29:17.959Z,101663
2017-11-06T13:31:46.155Z,101665
2017-11-06T13:34:14.298Z,101675
2017-11-06T13:36:42.459Z,101666
2017-11-06T13:39:10.628Z,101679
2017-11-06T13:41:39.380Z,101680
2017-11-06T13:44:08.336Z,101682
2017-11-06T13:46:36.484Z,101688
2017-11-06T13:49:04.745Z,101690
2017-11-06T13:51:32.949Z,101690
2017-11-06T13:54:01.110Z,101703
2017-11-06T13:56:29.279Z,101708
2017-11-06T13:58:57.465Z,101712
2017-11-06T14:01:25.646Z,101724
2017-11-06T14:03:53.826Z,101728
2017-11-06T14:06:21.997Z,101737
2017-11-06T14:08:50.172Z,101738
2017-11-06T14:11:18.327Z,101743
2017-11-06T14:13:46.492Z,101733
2017-11-06T14:16:14.681Z,101737
2017-11-06T14:18:42.840Z,101735
2017-11-06T14:21:11.007Z,101743
2017-11-06T14:23:39.179Z,101743
2017-11-06T14:26:07.360Z,101745
2017-11-06T14:28:35.572Z,101752
2017-11-06T14:31:03.741Z,101756
2017-11-06T14:33:31.882Z,101752
2017-11-06T14:36:00.051Z,101752
2017-11-06T14:38:28.252Z,101763
2017-11-06T14:40:56.420Z,101770
2017-11-06T14:43:24.562Z,101778
2017-11-06T14:45:52.726Z,101781
2017-11-06T14:48:20.897Z,101791
2017-11-06T14:50:49.084Z,101796
2017-11-06T14:53:17.235Z,101790
2017-11-06T14:55:46.154Z,101794
2017-11-06T14:58:14.322Z,101797
2017-11-06T15:00:42.463Z,101792
2017-11-06T15:03:11.446Z,101796
2017-11-06T15:05:40.379Z,101796
2017-11-06T15:08:08.531Z,101800
2017-11-06T15:10:37.449Z,101803
2017-11-06T15:13:05.743Z,101819
2017-11-06T15:15:33.922Z,101821
2017-11-06T15:18:02.100Z,101819
2017-11-06T15:20:30.263Z,101823
2017-11-06T15:22:58.441Z,101829
2017-11-06T15:25:26.599Z,101835
2017-11-06T15:27:54.872Z,101836
2017-11-06T15:30:23.026Z,101844
2017-11-06T15:32:51.240Z,101847
2017-11-06T15:35:19.400Z,101842
2017-11-06T15:37:47.587Z,101837
2017-11-06T15:40:15.844Z,101846
2017-11-06T15:42:44.043Z,101853
2017-11-06T15:45:12.195Z,101856
2017-11-06T15:47:40.360Z,101857
2017-11-06T15:50:08.972Z,101860
2017-11-06T15:52:37.119Z,101870
2017-11-06T15:55:05.282Z,101870
2017-11-06T15:57:33.432Z,101876
2017-11-06T16:00:01.596Z,101864
2017-11-06T16:02:29.740Z,101884
2017-11-06T16:04:57.918Z,101887
2017-11-06T16:07:26.138Z,101891
2017-11-06T16:09:54.309Z,101880
2017-11-06T16:12:22.452Z,101887
2017-11-06T16:14:50.629Z,101895
2017-11-06T16:17:19.418Z,101893
2017-11-06T16:19:47.592Z,101898
2017-11-06T16:22:16.489Z,101897
2017-11-06T16:24:44.711Z,101910
2017-11-06T16:27:12.865Z,101908
2017-11-06T16:29:41.049Z,101906
2017-11-06T16:32:09.224Z,101910
2017-11-06T16:34:37.388Z,101915
2017-11-06T16:37:05.556Z,101907
2017-11-06T16:39:33.718Z,101909
2017-11-06T16:42:01.892Z,101913
2017-11-06T16:44:30.041Z,101921
2017-11-06T16:46:58.203Z,101930
2017-11-06T16:49:26.359Z,101942
2017-11-06T16:51:55.291Z,101930
2017-11-06T16:54:23.436Z,101928
2017-11-06T16:56:51.599Z,101928
2017-11-06T16:59:20.522Z,101938
2017-11-06T17:01:49.237Z,101935
2017-11-06T17:04:17.406Z,101934
2017-11-06T17:06:45.554Z,101942
2017-11-06T17:09:13.719Z,101935
2017-11-06T17:11:41.871Z,101941
2017-11-06T17:14:10.828Z,101941
2017-11-06T17:16:38.980Z,101946
2017-11-06T17:19:07.946Z,101950
2017-11-06T17:21:36.090Z,101949
2017-11-06T17:24:05.006Z,101940
2017-11-06T17:26:33.952Z,101952
2017-11-06T17:29:02.124Z,101952
2017-11-06T17:31:30.275Z,101953
2017-11-06T17:33:58.449Z,101951
2017-11-06T17:36:26.612Z,101960
2017-11-06T17:38:54.800Z,101959
2017-11-06T17:41:22.948Z,101966
2017-11-06T17:43:51.131Z,101962
2017-11-06T17:46:19.307Z,101972
2017-11-06T17:48:47.459Z,101972
2017-11-06T17:51:16.601Z,101975
2017-11-06T17:53:44.956Z,101978
2017-11-06T17:56:13.130Z,101983
2017-11-06T17:58:41.292Z,101984
2017-11-06T18:01:09.469Z,101995
2017-11-06T18:03:37.862Z,101986
2017-11-06T18:06:06.023Z,101998
2017-11-06T18:08:34.174Z,101995
2017-11-06T18:11:02.438Z,101996
2017-11-06T18:13:30.660Z,102000
2017-11-06T18:15:58.856Z,101999
2017-11-06T18:18:27.010Z,101997
2017-11-06T18:20:55.158Z,101994
2017-11-06T18:23:23.330Z,102010
2017-11-06T18:25:51.542Z,102003
2017-11-06T18:28:19.755Z,102011
2017-11-06T18:30:47.911Z,102014
2017-11-06T18:33:16.872Z,102011
2017-11-06T18:35:45.044Z,102017
2017-11-06T18:38:13.195Z,102013
2017-11-06T18:40:41.674Z,102020
2017-11-06T18:43:09.960Z,102018
2017-11-06T18:45:38.099Z,102015
2017-11-06T18:48:06.265Z,102021
2017-11-06T18:50:34.424Z,102027
2017-11-06T18:53:03.362Z,102021
2017-11-06T18:55:31.585Z,102024
2017-11-06T18:58:00.531Z,102018
2017-11-06T19:00:28.731Z,102019
2017-11-06T19:02:56.877Z,102028
2017-11-06T19:05:25.050Z,102016
2017-11-06T19:07:53.227Z,102020
2017-11-06T19:10:22.061Z,102023
2017-11-06T19:12:50.620Z,102027
2017-11-06T19:15:18.820Z,102035
2017-11-06T19:17:46.971Z,102040
2017-11-06T19:20:15.129Z,102040
2017-11-06T19:22:43.295Z,102032
2017-11-06T19:25:11.470Z,102046
2017-11-06T19:27:39.631Z,102039
2017-11-06T19:30:07.917Z,102038
2017-11-06T19:32:36.147Z,102044
2017-11-06T19:35:04.320Z,102047
2017-11-06T19:37:32.673Z,102039
2017-11-06T19:40:01.614Z,102040
2017-11-06T19:42:30.199Z,102038
2017-11-06T19:44:58.433Z,102046
2017-11-06T19:47:26.607Z,102048
2017-11-06T19:49:54.766Z,102053
2017-11-06T19:52:23.702Z,102066
2017-11-06T19:54:51.855Z,102072
2017-11-06T19:57:20.013Z,102078
2017-11-06T19:59:48.171Z,102072
2017-11-06T20:02:17.095Z,102072
2017-11-06T20:04:45.239Z,102071
2017-11-06T20:07:14.985Z,102085
2017-11-06T20:09:43.134Z,102076
2017-11-06T20:12:11.283Z,102078
2017-11-06T20:14:40.190Z,102077
2017-11-06T20:17:09.128Z,102090
2017-11-06T20:19:37.278Z,102089
2017-11-06T20:22:05.428Z,102084
2017-11-06T20:24:33.627Z,102092
2017-11-06T20:27:01.786Z,102100
2017-11-06T20:29:30.658Z,102107
2017-11-06T20:31:59.705Z,102106
2017-11-06T20:34:27.862Z,102100
2017-11-06T20:36:56.007Z,102109
2017-11-06T20:39:24.167Z,102112
2017-11-06T20:41:53.084Z,102113
2017-11-06T20:44:21.271Z,102108
2017-11-06T20:46:49.420Z,102105
2017-11-06T20:49:17.581Z,102113
2017-11-06T20:51:46.508Z,102126
2017-11-06T20:54:14.664Z,102119
2017-11-06T20:56:42.796Z,102115
2017-11-06T20:59:11.736Z,102127
2017-11-06T21:01:39.884Z,102131
2017-11-06T21:04:08.032Z,102125
2017-11-06T21:06:36.259Z,102107
2017-11-06T21:09:04.399Z,102120
2017-11-06T21:11:33.336Z,102117
2017-11-06T21:14:01.488Z,102116
2017-11-06T21:16:29.665Z,102121
2017-11-06T21:18:57.817Z,102125
2017-11-06T21:21:26.286Z,102119
2017-11-06T21:23:54.483Z,102114
2017-11-06T21:26:22.643Z,102118
2017-11-06T21:28:51.070Z,102121
2017-11-06T21:31:19.234Z,102131
2017-11-06T21:33:47.366Z,102128
2017-11-06T21:36:15.558Z,102132
2017-11-06T21:38:43.731Z,102118
2017-11-06T21:41:11.904Z,102141
2017-11-06T21:43:40.067Z,102133
2017-11-06T21:46:08.238Z,102140
2017-11-06T21:48:36.385Z,102128
2017-11-06T21:51:05.319Z,102129
2017-11-06T21:53:33.470Z,102138
2017-11-06T21:56:01.636Z,102137
2017-11-06T21:58:29.784Z,102136
2017-11-06T22:00:58.707Z,102133
2017-11-06T22:03:26.884Z,102138
2017-11-06T22:05:55.026Z,102141
2017-11-06T22:08:23.956Z,102139
2017-11-06T22:10:52.102Z,102142
2017-11-06T22:13:20.264Z,102148
2017-11-06T22:15:49.191Z,102149
2017-11-06T22:18:17.364Z,102153
2017-11-06T22:20:45.502Z,102152
2017-11-06T22:23:14.432Z,102138
2017-11-06T22:25:42.598Z,102142
2017-11-06T22:28:10.783Z,102148
2017-11-06T22:30:39.756Z,102142
2017-11-06T22:33:07.924Z,102142
2017-11-06T22:35:36.061Z,102157
2017-11-06T22:38:04.290Z,102149
2017-11-06T22:40:32.460Z,102156
2017-11-06T22:43:00.617Z,102152
2017-11-06T22:45:28.774Z,102153
2017-11-06T22:47:56.931Z,102158
2017-11-06T22:50:25.854Z,102150
2017-11-06T22:52:54.035Z,102147
2017-11-06T22:55:22.918Z,102156
2017-11-06T22:57:51.073Z,102145
2017-11-06T23:00:19.234Z,102153
2017-11-06T23:02:49.097Z,102151
2017-11-06T23:05:17.257Z,102151
2017-11-06T23:07:45.412Z,102144
2017-11-06T23:10:13.643Z,102144
2017-11-06T23:12:41.810Z,102148
2017-11-06T23:15:09.958Z,102142
2017-11-06T23:17:38.111Z,102147
2017-11-06T23:20:06.312Z,102147
2017-11-06T23:22:34.481Z,102149
2017-11-06T23:25:02.634Z,102145
2017-11-06T23:27:30.809Z,102152
2017-11-06T23:29:58.966Z,102150
2017-11-06T23:32:27.128Z,102146
2017-11-06T23:34:56.047Z,102153
2017-11-06T23:37:24.209Z,102155
2017-11-06T23:39:52.351Z,102157
2017-11-06T23:42:21.271Z,102159
2017-11-06T23:44:50.309Z,102160
2017-11-06T23:47:18.480Z,102157
2017-11-06T23:49:46.636Z,102160
2017-11-06T23:52:14.824Z,102157
2017-11-06T23:54:42.971Z,102160
2017-11-06T23:57:11.124Z,102160
2017-11-06T23:59:39.331Z,102156
